Middleburg, North Carolina
Current Conditions -  °F | °C
As of 5:35 AM on Wednesday 22 Oct 2014 (Local Time) from KHNZ Reporting Station
Overcast Overcast  
Wind Chill: 46°   Ceiling: 7000
Heat Index: 50°   Visibility: 10mi
Dew Point: 42°   Wind: 8mph
Humidity: 75%   Direction: 310°NW
Pressure: 29.93"   Gusts: NA
Location:  36.4°N, 78.32°W
Report Text: KHNZ 220935Z AUTO 31007KT 10SM OVC070 10/06 A2993 RMK AO2 T00980055
Loading
Personal Weather Stations






























Interactive Weather Map
Tropical Storm Tracking
New forecast layout! Learn more

10-Day Weather Forecast

Advertisements
Track Severe Weather on mobile